Phoenixville, Pennsylvania
Current Conditions -  °F | °C
As of 9:54 AM on Sunday 23 Nov 2014 (Local Time) from KPTW Reporting Station
Overcast Overcast  
Wind Chill: 46°   Ceiling: 11000
Heat Index: 46°   Visibility: 10mi
Dew Point: 23°   Wind: 3mph
Humidity: 40%   Direction: 250°WSW
Pressure: 30.23"   Gusts: NA
Location:  40.13°N, 75.51°W
Report Text: KPTW 231454Z AUTO 25003KT 10SM FEW075 OVC110 08/M05 A3023 RMK AO2 SLP235 T00781050 50004
Loading
Personal Weather Stations






























Interactive Weather Map New forecast layout! Learn more

10-Day Weather Forecast

Advertisements
Track Severe Weather on mobile